createdAt,value
2018-03-29T00:00:22.785Z,11.73
2018-03-29T00:02:48.549Z,12.40
2018-03-29T00:05:14.340Z,11.73
2018-03-29T00:07:40.105Z,13.40
2018-03-29T00:10:05.862Z,12.93
2018-03-29T00:12:31.604Z,10.77
2018-03-29T00:14:57.356Z,9.80
2018-03-29T00:17:23.127Z,13.80
2018-03-29T00:19:48.873Z,11.27
2018-03-29T00:22:15.061Z,12.27
2018-03-29T00:24:40.808Z,11.35
2018-03-29T00:27:06.585Z,12.87
2018-03-29T00:29:32.357Z,10.10
2018-03-29T00:31:58.124Z,10.40
2018-03-29T00:34:23.873Z,11.27
2018-03-29T00:36:49.721Z,11.77
2018-03-29T00:39:16.093Z,9.03
2018-03-29T00:41:41.845Z,10.18
2018-03-29T00:44:07.634Z,9.47
2018-03-29T00:46:33.397Z,9.77
2018-03-29T00:48:59.136Z,10.60
2018-03-29T00:51:24.921Z,10.33
2018-03-29T00:53:50.704Z,10.37
2018-03-29T00:56:16.448Z,9.97
2018-03-29T00:58:42.410Z,10.47
2018-03-29T01:01:08.190Z,10.40
2018-03-29T01:03:33.954Z,11.80
2018-03-29T01:05:59.777Z,12.30
2018-03-29T01:08:25.518Z,9.67
2018-03-29T01:10:51.265Z,11.27
2018-03-29T01:13:17.060Z,10.80
2018-03-29T01:15:42.800Z,9.67
2018-03-29T01:18:08.571Z,12.10
2018-03-29T01:20:34.496Z,12.13
2018-03-29T01:23:00.273Z,11.30
2018-03-29T01:25:26.033Z,12.03
2018-03-29T01:27:51.822Z,10.00
2018-03-29T01:30:17.560Z,12.00
2018-03-29T01:32:43.317Z,9.10
2018-03-29T01:35:09.076Z,8.87
2018-03-29T01:37:34.835Z,9.30
2018-03-29T01:40:00.587Z,8.90
2018-03-29T01:42:26.370Z,9.47
2018-03-29T01:44:52.133Z,10.60
2018-03-29T01:47:17.905Z,9.90
2018-03-29T01:49:43.825Z,9.93
2018-03-29T01:52:09.577Z,8.20
2018-03-29T01:54:35.325Z,9.17
2018-03-29T01:57:01.109Z,9.53
2018-03-29T01:59:26.849Z,8.13
2018-03-29T02:01:52.605Z,8.83
2018-03-29T02:04:18.379Z,8.40
2018-03-29T02:06:44.134Z,8.83
2018-03-29T02:09:09.901Z,7.80
2018-03-29T02:11:35.677Z,8.43
2018-03-29T02:14:01.428Z,7.60
2018-03-29T02:16:27.211Z,7.97
2018-03-29T02:18:52.972Z,7.97
2018-03-29T02:21:18.957Z,7.80
2018-03-29T02:23:44.700Z,7.10
2018-03-29T02:26:10.504Z,7.20
2018-03-29T02:28:36.262Z,6.63
2018-03-29T02:31:02.017Z,7.47
2018-03-29T02:33:27.794Z,6.60
2018-03-29T02:35:53.566Z,7.40
2018-03-29T02:38:19.322Z,7.37
2018-03-29T02:40:45.096Z,6.90
2018-03-29T02:43:10.844Z,8.50
2018-03-29T02:45:36.632Z,7.60
2018-03-29T02:48:02.398Z,8.53
2018-03-29T02:50:28.354Z,8.03
2018-03-29T02:52:54.124Z,7.97
2018-03-29T02:55:19.885Z,8.20
2018-03-29T02:57:45.650Z,7.83
2018-03-29T03:00:11.410Z,9.47
2018-03-29T03:02:37.204Z,7.13
2018-03-29T03:05:02.983Z,9.20
2018-03-29T03:07:28.746Z,6.80
2018-03-29T03:09:54.538Z,7.97
2018-03-29T03:12:20.317Z,8.30
2018-03-29T03:14:46.049Z,6.90
2018-03-29T03:17:11.825Z,8.23
2018-03-29T03:19:37.774Z,8.70
2018-03-29T03:22:03.534Z,7.93
2018-03-29T03:24:29.310Z,7.53
2018-03-29T03:26:55.065Z,7.70
2018-03-29T03:29:20.825Z,7.90
2018-03-29T03:31:46.592Z,6.97
2018-03-29T03:34:12.344Z,7.60
2018-03-29T03:36:38.597Z,7.27
2018-03-29T03:39:04.362Z,7.55
2018-03-29T03:41:30.114Z,7.03
2018-03-29T03:43:55.861Z,6.27
2018-03-29T03:46:21.617Z,7.97
2018-03-29T03:48:47.367Z,7.70
2018-03-29T03:51:13.117Z,8.53
2018-03-29T03:53:38.899Z,7.70
2018-03-29T03:56:04.958Z,6.20
2018-03-29T03:58:30.715Z,6.30
2018-03-29T04:00:56.480Z,6.77
2018-03-29T04:03:22.234Z,6.70
2018-03-29T04:05:47.988Z,6.20
2018-03-29T04:08:13.782Z,5.83
2018-03-29T04:10:39.559Z,8.23
2018-03-29T04:13:05.324Z,6.40
2018-03-29T04:15:31.088Z,5.67
2018-03-29T04:17:56.855Z,6.20
2018-03-29T04:20:22.604Z,6.17
2018-03-29T04:22:48.660Z,5.67
2018-03-29T04:25:14.404Z,6.15
2018-03-29T04:27:40.155Z,5.53
2018-03-29T04:30:05.929Z,5.90
2018-03-29T04:32:31.669Z,7.17
2018-03-29T04:34:57.412Z,6.03
2018-03-29T04:37:23.190Z,5.67
2018-03-29T04:39:48.939Z,5.13
2018-03-29T04:42:14.692Z,5.60
2018-03-29T04:44:40.465Z,6.60
2018-03-29T04:47:06.209Z,6.73
2018-03-29T04:49:31.996Z,5.60
2018-03-29T04:51:57.783Z,6.53
2018-03-29T04:54:23.785Z,6.83
2018-03-29T04:56:49.542Z,6.35
2018-03-29T04:59:15.310Z,6.03
2018-03-29T05:01:41.064Z,6.27
2018-03-29T05:04:06.817Z,6.37
2018-03-29T05:06:32.581Z,6.57
2018-03-29T05:08:58.330Z,5.53
2018-03-29T05:11:24.096Z,5.57
2018-03-29T05:13:49.850Z,7.60
2018-03-29T05:16:15.614Z,7.03
2018-03-29T05:18:41.688Z,8.03
2018-03-29T05:21:07.437Z,7.05
2018-03-29T05:23:33.198Z,7.50
2018-03-29T05:26:04.949Z,7.43
2018-03-29T05:28:30.733Z,7.12
2018-03-29T05:30:56.474Z,7.87
2018-03-29T05:33:22.261Z,7.97
2018-03-29T05:35:48.442Z,8.43
2018-03-29T05:38:14.217Z,10.35
2018-03-29T05:40:40.002Z,9.63
2018-03-29T05:43:05.749Z,10.10
2018-03-29T05:45:31.504Z,10.23
2018-03-29T05:47:57.285Z,10.80
2018-03-29T05:50:23.022Z,11.13
2018-03-29T05:52:48.780Z,12.17
2018-03-29T05:55:14.541Z,11.10
2018-03-29T05:57:40.333Z,11.23
2018-03-29T06:00:06.620Z,9.93
2018-03-29T06:02:32.405Z,12.45
2018-03-29T06:04:58.150Z,11.43
2018-03-29T06:07:23.903Z,12.10
2018-03-29T06:09:49.653Z,11.33
2018-03-29T06:12:15.401Z,10.70
2018-03-29T06:14:44.205Z,10.73
2018-03-29T06:17:16.116Z,11.00
2018-03-29T06:19:41.902Z,9.63
2018-03-29T06:22:08.213Z,10.03
2018-03-29T06:24:33.986Z,9.65
2018-03-29T06:26:59.774Z,12.50
2018-03-29T06:29:25.548Z,9.40
2018-03-29T06:31:51.309Z,9.87
2018-03-29T06:34:17.077Z,11.10
2018-03-29T06:36:42.818Z,9.37
2018-03-29T06:39:09.025Z,11.60
2018-03-29T06:41:34.836Z,10.45
2018-03-29T06:44:00.590Z,10.30
2018-03-29T06:46:26.389Z,9.10
2018-03-29T06:48:52.128Z,11.13
2018-03-29T06:51:17.873Z,10.43
2018-03-29T06:53:43.625Z,11.30
2018-03-29T06:56:09.469Z,10.00
2018-03-29T06:58:35.260Z,10.33
2018-03-29T07:01:01.342Z,12.60
2018-03-29T07:03:27.130Z,11.63
2018-03-29T07:05:52.890Z,17.80
2018-03-29T07:08:18.660Z,24.60
2018-03-29T07:10:44.426Z,26.90
2018-03-29T07:13:10.225Z,29.63
2018-03-29T07:15:36.049Z,22.93
2018-03-29T07:18:01.805Z,19.73
2018-03-29T07:20:27.565Z,35.83
2018-03-29T07:22:53.336Z,16.73
2018-03-29T07:25:19.603Z,19.10
2018-03-29T07:27:45.387Z,13.45
2018-03-29T07:30:11.146Z,12.93
2018-03-29T07:32:36.974Z,11.90
2018-03-29T07:35:02.753Z,11.40
2018-03-29T07:37:28.525Z,11.10
2018-03-29T07:39:54.273Z,11.40
2018-03-29T07:42:20.045Z,11.03
2018-03-29T07:44:46.056Z,11.83
2018-03-29T07:47:11.862Z,11.30
2018-03-29T07:49:38.208Z,9.80
2018-03-29T07:52:03.969Z,11.47
2018-03-29T07:54:29.796Z,11.27
2018-03-29T07:56:55.560Z,10.80
2018-03-29T07:59:21.302Z,10.80
2018-03-29T08:01:47.059Z,11.33
2018-03-29T08:04:12.841Z,11.30
2018-03-29T08:06:39.020Z,14.50
2018-03-29T08:09:04.776Z,13.23
2018-03-29T08:11:30.565Z,12.80
2018-03-29T08:13:56.300Z,10.90
2018-03-29T08:16:22.039Z,11.80
2018-03-29T08:18:47.808Z,10.37
2018-03-29T08:21:13.548Z,10.80
2018-03-29T08:23:39.308Z,11.77
2018-03-29T08:26:05.083Z,10.83
2018-03-29T08:28:31.290Z,11.90
2018-03-29T08:30:57.030Z,10.90
2018-03-29T08:33:22.788Z,10.37
2018-03-29T08:35:48.553Z,10.87
2018-03-29T08:38:14.310Z,11.73
2018-03-29T08:40:40.077Z,11.37
2018-03-29T08:43:05.828Z,10.23
2018-03-29T08:45:31.577Z,11.37
2018-03-29T08:47:57.428Z,9.70
2018-03-29T08:50:23.178Z,10.80
2018-03-29T08:52:48.937Z,10.50
2018-03-29T08:55:14.705Z,10.83
2018-03-29T08:57:41.016Z,10.30
2018-03-29T09:00:06.760Z,11.03
2018-03-29T09:02:32.540Z,9.97
2018-03-29T09:04:58.295Z,10.97
2018-03-29T09:07:24.053Z,10.27
2018-03-29T09:09:49.830Z,10.00
2018-03-29T09:12:15.593Z,10.90
2018-03-29T09:14:41.341Z,11.33
2018-03-29T09:17:07.102Z,11.73
2018-03-29T09:19:32.868Z,11.17
2018-03-29T09:21:58.622Z,11.83
2018-03-29T09:24:24.853Z,11.93
2018-03-29T09:26:50.590Z,10.60
2018-03-29T09:29:16.325Z,11.13
2018-03-29T09:31:42.076Z,11.00
2018-03-29T09:34:07.825Z,10.73
2018-03-29T09:36:33.578Z,10.40
2018-03-29T09:38:59.364Z,12.10
2018-03-29T09:41:25.118Z,11.00
2018-03-29T09:43:50.877Z,10.70
2018-03-29T09:46:16.637Z,11.73
2018-03-29T09:48:42.908Z,11.87
2018-03-29T09:51:08.666Z,10.17
2018-03-29T09:53:34.420Z,11.30
2018-03-29T09:56:00.168Z,10.90
2018-03-29T09:58:25.930Z,10.83
2018-03-29T10:00:51.723Z,10.67
2018-03-29T10:03:21.482Z,11.93
2018-03-29T10:05:47.270Z,10.60
2018-03-29T10:08:13.024Z,12.03
2018-03-29T10:10:38.788Z,10.70
2018-03-29T10:13:04.575Z,10.37
2018-03-29T10:15:30.324Z,11.37
2018-03-29T10:17:56.520Z,11.43
2018-03-29T10:20:22.308Z,10.83
2018-03-29T10:22:48.055Z,11.23
2018-03-29T10:25:13.821Z,11.43
2018-03-29T10:27:39.591Z,11.50
2018-03-29T10:30:05.354Z,12.20
2018-03-29T10:32:31.111Z,11.80
2018-03-29T10:34:57.375Z,12.63
2018-03-29T10:37:23.122Z,12.93
2018-03-29T10:39:48.876Z,11.83
2018-03-29T10:42:14.652Z,11.50
2018-03-29T10:44:40.429Z,10.50
2018-03-29T10:47:06.184Z,11.03
2018-03-29T10:49:31.941Z,11.07
2018-03-29T10:51:57.697Z,11.80
2018-03-29T10:54:23.812Z,10.63
2018-03-29T10:56:49.573Z,11.00
2018-03-29T10:59:15.320Z,11.47
2018-03-29T11:01:41.077Z,12.40
2018-03-29T11:04:06.836Z,12.30
2018-03-29T11:06:32.577Z,12.80
2018-03-29T11:11:50.498Z,10.93
2018-03-29T11:14:16.253Z,12.63
2018-03-29T11:16:42.020Z,11.70
2018-03-29T11:19:07.784Z,12.10
2018-03-29T11:21:33.556Z,19.27
2018-03-29T11:23:59.361Z,19.00
2018-03-29T11:26:25.507Z,15.70
2018-03-29T11:28:51.252Z,18.27
2018-03-29T11:31:17.021Z,14.00
2018-03-29T11:33:42.769Z,31.70
2018-03-29T11:36:08.536Z,20.50
2018-03-29T11:38:34.324Z,21.00
2018-03-29T11:41:00.085Z,13.47
2018-03-29T11:43:25.828Z,12.53
2018-03-29T11:45:51.590Z,13.77
2018-03-29T11:48:17.346Z,11.27
2018-03-29T11:50:43.658Z,12.27
2018-03-29T11:53:09.654Z,11.97
2018-03-29T11:55:35.444Z,11.67
2018-03-29T11:58:01.183Z,10.30
2018-03-29T12:00:26.971Z,12.70
2018-03-29T12:02:52.716Z,12.03
2018-03-29T12:05:18.485Z,12.60
2018-03-29T12:07:44.233Z,12.83
2018-03-29T12:10:10.124Z,12.67
2018-03-29T12:12:35.898Z,11.70
2018-03-29T12:15:01.665Z,11.47
2018-03-29T12:17:27.424Z,12.93
2018-03-29T12:19:53.657Z,14.30
2018-03-29T12:22:19.429Z,11.43
2018-03-29T12:24:45.194Z,13.43
2018-03-29T12:27:10.953Z,13.10
2018-03-29T12:29:36.718Z,14.10
2018-03-29T12:32:02.470Z,12.17
2018-03-29T12:34:28.238Z,12.47
2018-03-29T12:36:54.007Z,12.87
2018-03-29T12:39:19.756Z,12.20
2018-03-29T12:41:45.525Z,13.27
2018-03-29T12:44:11.292Z,11.87
2018-03-29T12:46:37.061Z,12.13
2018-03-29T12:49:02.852Z,12.73
2018-03-29T12:51:28.593Z,10.90
2018-03-29T12:53:54.721Z,12.80
2018-03-29T12:56:21.285Z,14.07
2018-03-29T12:58:47.025Z,11.70
2018-03-29T13:01:12.781Z,13.87
2018-03-29T13:03:38.549Z,11.87
2018-03-29T13:06:04.306Z,14.07
2018-03-29T13:08:30.097Z,12.17
2018-03-29T13:10:55.875Z,13.07
2018-03-29T13:13:21.632Z,12.33
2018-03-29T13:15:47.399Z,12.27
2018-03-29T13:18:13.154Z,13.60
2018-03-29T13:20:39.757Z,13.20
2018-03-29T13:23:05.557Z,13.17
2018-03-29T13:25:31.322Z,12.30
2018-03-29T13:27:57.080Z,13.30
2018-03-29T13:30:26.858Z,14.03
2018-03-29T13:32:52.849Z,12.47
2018-03-29T13:35:18.601Z,12.93
2018-03-29T13:37:44.351Z,11.50
2018-03-29T13:40:10.102Z,12.27
2018-03-29T13:42:35.858Z,13.10
2018-03-29T13:45:01.608Z,11.37
2018-03-29T13:47:27.370Z,10.73
2018-03-29T13:49:53.171Z,10.57
2018-03-29T13:52:19.398Z,9.60
2018-03-29T13:54:45.171Z,9.77
2018-03-29T13:57:10.934Z,10.20
2018-03-29T13:59:36.705Z,9.40
2018-03-29T14:02:02.456Z,9.60
2018-03-29T14:04:28.250Z,8.73
2018-03-29T14:06:53.997Z,7.73
2018-03-29T14:09:19.740Z,9.40
2018-03-29T14:11:45.512Z,8.77
2018-03-29T14:14:11.265Z,8.83
2018-03-29T14:16:37.021Z,7.73
2018-03-29T14:19:02.793Z,9.03
2018-03-29T14:21:28.557Z,8.80
2018-03-29T14:23:54.720Z,9.90
2018-03-29T14:26:20.476Z,9.37
2018-03-29T14:28:46.314Z,8.50
2018-03-29T14:31:12.069Z,9.23
2018-03-29T14:33:37.833Z,8.90
2018-03-29T14:36:03.586Z,8.53
2018-03-29T14:38:29.341Z,9.00
2018-03-29T14:40:55.121Z,7.90
2018-03-29T14:43:20.888Z,10.00
2018-03-29T14:45:46.657Z,9.77
2018-03-29T14:48:12.420Z,9.17
2018-03-29T14:50:38.153Z,10.80
2018-03-29T14:53:03.897Z,9.17
2018-03-29T14:55:30.091Z,8.83
2018-03-29T14:57:55.853Z,9.70
2018-03-29T15:00:21.628Z,9.33
2018-03-29T15:02:47.393Z,9.40
2018-03-29T15:05:13.161Z,9.37
2018-03-29T15:07:38.892Z,10.23
2018-03-29T15:10:04.671Z,11.20
2018-03-29T15:12:30.413Z,10.30
2018-03-29T15:14:56.181Z,9.70
2018-03-29T15:17:21.944Z,9.30
2018-03-29T15:19:47.741Z,9.03
2018-03-29T15:22:13.878Z,8.80
2018-03-29T15:24:39.662Z,8.87
2018-03-29T15:27:05.421Z,9.00
2018-03-29T15:29:31.160Z,9.20
2018-03-29T15:31:56.945Z,9.70
2018-03-29T15:34:22.689Z,9.33
2018-03-29T15:36:48.452Z,9.87
2018-03-29T15:39:14.235Z,12.70
2018-03-29T15:41:39.972Z,10.03
2018-03-29T15:44:05.739Z,11.37
2018-03-29T15:46:31.548Z,10.77
2018-03-29T15:48:57.288Z,10.13
2018-03-29T15:51:23.395Z,11.40
2018-03-29T15:53:49.153Z,10.80
2018-03-29T15:56:14.922Z,10.00
2018-03-29T15:58:40.669Z,12.47
2018-03-29T16:01:06.461Z,12.20
2018-03-29T16:03:32.200Z,10.70
2018-03-29T16:05:57.939Z,10.03
2018-03-29T16:08:23.680Z,10.07
2018-03-29T16:10:49.417Z,10.70
2018-03-29T16:13:15.193Z,9.53
2018-03-29T16:15:40.933Z,9.70
2018-03-29T16:18:06.685Z,10.17
2018-03-29T16:20:32.480Z,12.30
2018-03-29T16:22:58.524Z,13.07
2018-03-29T16:25:24.279Z,10.33
2018-03-29T16:27:50.066Z,10.13
2018-03-29T16:30:15.808Z,12.27
2018-03-29T16:32:41.541Z,11.60
2018-03-29T16:37:58.066Z,10.30
2018-03-29T16:40:25.576Z,9.10
2018-03-29T16:42:51.395Z,10.40
2018-03-29T16:45:17.193Z,10.30
2018-03-29T16:47:42.944Z,10.33
2018-03-29T16:50:08.712Z,9.60
2018-03-29T16:52:34.466Z,10.10
2018-03-29T16:55:00.229Z,10.80
2018-03-29T16:57:26.425Z,9.50
2018-03-29T16:59:52.176Z,9.47
2018-03-29T17:02:17.924Z,10.53
2018-03-29T17:04:43.698Z,9.80
2018-03-29T17:52:50.736Z,13.30
2018-03-29T17:55:16.492Z,12.90
2018-03-29T18:21:16.676Z,16.27
2018-03-29T18:23:42.465Z,13.87
2018-03-29T18:26:08.223Z,16.60
2018-03-29T18:28:34.008Z,20.20
2018-03-29T18:30:59.753Z,23.50
2018-03-29T18:33:25.517Z,16.47
2018-03-29T18:35:51.285Z,31.03
2018-03-29T18:38:17.299Z,19.00
2018-03-29T18:40:43.049Z,14.50
2018-03-29T18:43:08.826Z,16.07
2018-03-29T18:45:34.584Z,15.67
2018-03-29T18:48:00.355Z,15.43
2018-03-29T18:50:26.137Z,19.63
2018-03-29T18:52:51.884Z,19.00
2018-03-29T18:55:18.039Z,15.93
2018-03-29T18:57:43.988Z,16.83
2018-03-29T19:00:09.818Z,16.50
2018-03-29T19:02:35.606Z,17.93
2018-03-29T19:05:01.396Z,18.00
2018-03-29T19:07:27.141Z,16.90
2018-03-29T19:09:52.913Z,16.83
2018-03-29T19:12:18.955Z,16.07
2018-03-29T19:14:44.721Z,18.33
2018-03-29T19:17:10.489Z,17.03
2018-03-29T19:19:36.273Z,18.70
2018-03-29T19:22:02.048Z,18.63
2018-03-29T19:24:27.823Z,17.40
2018-03-29T19:26:53.596Z,18.10
2018-03-29T19:29:19.757Z,18.40
2018-03-29T19:31:45.529Z,16.73
2018-03-29T19:34:11.302Z,17.50
2018-03-29T19:36:37.069Z,14.90
2018-03-29T19:39:02.863Z,14.80
2018-03-29T19:41:28.631Z,16.57
2018-03-29T19:43:54.398Z,16.50
2018-03-29T19:46:20.261Z,16.03
2018-03-29T19:48:46.025Z,12.60
2018-03-29T19:51:11.781Z,15.90
2018-03-29T19:53:37.559Z,14.77
2018-03-29T19:56:03.329Z,12.60
2018-03-29T19:58:29.094Z,13.53
2018-03-29T20:00:54.853Z,13.47
2018-03-29T20:03:21.056Z,14.37
2018-03-29T20:05:46.826Z,12.57
2018-03-29T20:08:12.588Z,13.50
2018-03-29T20:10:38.392Z,11.60
2018-03-29T20:13:04.119Z,12.50
2018-03-29T20:15:29.868Z,13.53
2018-03-29T20:17:55.661Z,14.20
2018-03-29T20:20:21.425Z,11.73
2018-03-29T20:22:47.245Z,12.03
2018-03-29T20:25:13.036Z,12.07
2018-03-29T20:27:38.800Z,13.17
2018-03-29T20:30:04.589Z,12.70
2018-03-29T20:32:30.394Z,14.40
2018-03-29T20:34:56.172Z,14.53
2018-03-29T20:37:21.917Z,13.00
2018-03-29T20:39:47.792Z,14.13
2018-03-29T20:42:13.549Z,12.27
2018-03-29T20:44:39.299Z,12.40
2018-03-29T20:47:05.086Z,13.73
2018-03-29T20:49:30.833Z,14.40
2018-03-29T20:51:56.603Z,13.90
2018-03-29T20:54:22.365Z,13.00
2018-03-29T20:56:48.220Z,12.40
2018-03-29T20:59:13.966Z,12.53
2018-03-29T21:01:39.737Z,13.90
2018-03-29T21:04:05.473Z,11.53
2018-03-29T21:06:31.232Z,13.00
2018-03-29T21:08:56.996Z,11.90
2018-03-29T21:11:22.756Z,11.60
2018-03-29T21:13:48.570Z,11.80
2018-03-29T21:16:14.339Z,11.57
2018-03-29T21:18:40.099Z,12.20
2018-03-29T21:21:05.860Z,11.70
2018-03-29T21:23:31.618Z,11.07
2018-03-29T21:25:57.395Z,12.90
2018-03-29T21:28:23.137Z,10.63
2018-03-29T21:30:49.221Z,11.90
2018-03-29T21:33:15.001Z,11.77
2018-03-29T21:35:40.748Z,12.20
2018-03-29T21:38:06.518Z,11.43
2018-03-29T21:40:32.288Z,12.20
2018-03-29T21:42:58.051Z,12.37
2018-03-29T21:45:23.850Z,10.87
2018-03-29T21:47:49.895Z,11.30
2018-03-29T21:50:15.698Z,10.60
2018-03-29T21:52:41.484Z,11.73
2018-03-29T21:55:07.241Z,11.63
2018-03-29T21:57:33.016Z,11.20
2018-03-29T21:59:58.773Z,10.30
2018-03-29T22:02:24.545Z,10.53
2018-03-29T22:04:51.391Z,11.20
2018-03-29T22:07:17.173Z,9.68
2018-03-29T22:09:42.941Z,10.57
2018-03-29T22:12:08.716Z,10.53
2018-03-29T22:14:34.840Z,10.60
2018-03-29T22:17:00.649Z,11.23
2018-03-29T22:19:26.521Z,11.13
2018-03-29T22:21:52.392Z,12.87
2018-03-29T22:24:18.156Z,11.97
2018-03-29T22:26:44.019Z,12.83
2018-03-29T22:29:10.729Z,12.73
2018-03-29T22:31:36.469Z,13.43
2018-03-29T22:34:02.350Z,12.90
2018-03-29T22:36:28.094Z,13.33
2018-03-29T22:38:53.960Z,14.83
2018-03-29T22:41:19.731Z,13.23
2018-03-29T22:43:45.495Z,12.67
2018-03-29T22:46:11.251Z,13.50
2018-03-29T22:48:37.004Z,14.60
2018-03-29T22:51:02.804Z,11.00
2018-03-29T22:53:28.568Z,13.20
2018-03-29T22:55:54.872Z,12.27
2018-03-29T22:58:20.679Z,12.98
2018-03-29T23:00:46.421Z,12.80
2018-03-29T23:03:12.190Z,11.97
2018-03-29T23:05:37.958Z,14.20
2018-03-29T23:08:03.771Z,14.83
2018-03-29T23:10:29.526Z,13.87
2018-03-29T23:12:55.296Z,12.43
2018-03-29T23:15:21.065Z,12.70
2018-03-29T23:17:46.846Z,11.77
2018-03-29T23:20:12.721Z,16.50
2018-03-29T23:22:38.485Z,15.13
2018-03-29T23:25:04.246Z,13.93
2018-03-29T23:27:30.026Z,15.50
2018-03-29T23:29:55.802Z,12.73
2018-03-29T23:32:21.568Z,13.20
2018-03-29T23:34:47.349Z,13.73
2018-03-29T23:37:13.453Z,14.93
2018-03-29T23:39:39.226Z,14.40
2018-03-29T23:42:05.007Z,13.73
2018-03-29T23:44:30.789Z,13.17
2018-03-29T23:46:56.577Z,15.70
2018-03-29T23:49:22.313Z,13.50
2018-03-29T23:51:48.061Z,14.03
2018-03-29T23:54:14.317Z,14.87
2018-03-29T23:56:40.093Z,15.30
2018-03-29T23:59:05.843Z,14.43
